This is the latest recevied weather packets stored in our database for station/object OE7AOT-2. If no packets are shown the sender has not sent any weather packets the latest 10 day(s).
| Time | Temp. | Humidity | Pressure | Rain* | Wind** | Luminosity | Snow |
|---|---|---|---|---|---|---|---|
| 1777475387 | 36.67° C | 37% | 927.5 hPa | 0 mm | - | - | - |
| 1777475318 | 36.11° C | 37% | 927.5 hPa | 0 mm | - | - | - |
| 1777475250 | 36.11° C | 37% | 927.6 hPa | 0 mm | - | - | - |
| 1777475182 | 35.56° C | 38% | 927.6 hPa | 0 mm | - | - | - |
| 1777475113 | 35° C | 38% | 927.6 hPa | 0 mm | - | - | - |
| 1777475045 | 33.89° C | 38% | 927.6 hPa | 0 mm | - | - | - |
| 1777474976 | 33.33° C | 39% | 927.6 hPa | 0 mm | - | - | - |
| 1777474908 | 32.22° C | 40% | 927.4 hPa | 0 mm | - | - | - |
| 1777474839 | 30.56° C | 42% | 927.6 hPa | 0 mm | - | - | - |
| 1777474771 | 31.67° C | 41% | 927.5 hPa | 0 mm | - | - | - |
| 1777474703 | 32.78° C | 40% | 927.4 hPa | 0 mm | - | - | - |
| 1777474634 | 31.67° C | 41% | 927.5 hPa | 0 mm | - | - | - |
| 1777474566 | 30° C | 41% | 927.5 hPa | 0 mm | - | - | - |
| 1777474497 | 29.44° C | 42% | 927.6 hPa | 0 mm | - | - | - |
| 1777474429 | 32.22° C | 40% | 927.3 hPa | 0 mm | - | - | - |
| 1777474360 | 35.56° C | 37% | 927.5 hPa | 0 mm | - | - | - |
| 1777474292 | 39.44° C | 34% | 927.4 hPa | 0 mm | - | - | - |
| 1777474224 | 39.44° C | 34% | 927.5 hPa | 0 mm | - | - | - |
| 1777474155 | 39.44° C | 34% | 927.4 hPa | 0 mm | - | - | - |
| 1777474087 | 39.44° C | 34% | 927.4 hPa | 0 mm | - | - | - |
| 1777474018 | 40° C | 34% | 927.6 hPa | 0 mm | - | - | - |
| 1777473950 | 40° C | 34% | 927.6 hPa | 0 mm | - | - | - |
| 1777473881 | 40° C | 34% | 927.6 hPa | 0 mm | - | - | - |
| 1777473813 | 40° C | 34% | 927.4 hPa | 0 mm | - | - | - |
| 1777473744 | 40° C | 34% | 927.5 hPa | 0 mm | - | - | - |
* Rain latest hour (hover to see other rain measurements)
** Current wind speed in m/s (hover to see current wind gust speed)